Time;durP1;ratioP1;P1;durP2;ratioP2;P2;SDS_P1;SDS_P2;PMS_P1;PMS_P2;Temp;Humidity;BMP_temperature;BMP_pressure;BME280_temperature;BME280_humidity;BME280_pressure;Samples;Min_cycle;Max_cycle;Signal;HPM_P1;HPM_P2
2024/01/25 00:00:57;;;;;;;8.73;4.43;;;17.60;59.00;18.50;101905.00;;;;5045330;28;20182;-50
2024/01/25 00:03:23;;;;;;;11.03;5.03;;;17.60;59.00;18.50;101904.00;;;;5044417;28;20178;-50
2024/01/25 00:05:49;;;;;;;9.97;4.13;;;17.60;59.00;18.50;101916.00;;;;5044203;28;20209;-50
2024/01/25 00:08:14;;;;;;;9.27;4.43;;;17.50;59.00;18.50;101912.00;;;;5045405;28;20210;-50
2024/01/25 00:10:40;;;;;;;9.03;4.57;;;17.50;59.10;18.50;101905.00;;;;5041482;28;20190;-49
2024/01/25 00:13:06;;;;;;;8.17;4.40;;;17.50;59.20;18.50;101909.00;;;;5045551;28;20178;-49
2024/01/25 00:15:32;;;;;;;7.87;4.40;;;17.50;59.10;18.50;101912.00;;;;5042668;28;20196;-49
2024/01/25 00:17:58;;;;;;;7.00;3.73;;;17.50;59.20;18.50;101907.00;;;;5044984;28;20186;-48
2024/01/25 00:20:24;;;;;;;7.87;4.50;;;17.50;59.30;18.40;101909.00;;;;5043703;28;20248;-48
2024/01/25 00:22:49;;;;;;;9.67;5.07;;;17.50;59.20;18.40;101912.00;;;;5043589;28;20179;-49
2024/01/25 00:25:15;;;;;;;9.27;4.83;;;17.40;59.20;18.40;101914.00;;;;5044350;28;20244;-49
2024/01/25 00:27:41;;;;;;;9.50;4.53;;;17.40;59.30;18.40;101918.00;;;;5040790;28;20214;-49
2024/01/25 00:30:07;;;;;;;9.87;4.73;;;17.40;59.30;18.40;101914.00;;;;5044137;28;20758;-49
2024/01/25 00:32:33;;;;;;;7.37;4.13;;;17.30;59.30;18.40;101918.00;;;;5042983;28;20220;-50
2024/01/25 00:34:59;;;;;;;7.70;4.60;;;17.40;59.30;18.40;101918.00;;;;5045049;28;20285;-48
2024/01/25 00:37:25;;;;;;;7.90;4.70;;;17.40;59.30;18.40;101917.00;;;;5043314;28;20204;-49
2024/01/25 00:39:51;;;;;;;9.37;4.20;;;17.30;59.20;18.40;101830.00;;;;5043681;28;20667;-48
2024/01/25 00:42:17;;;;;;;8.40;4.60;;;17.40;59.30;18.40;101908.00;;;;5044450;28;20197;-49
2024/01/25 00:44:43;;;;;;;7.50;4.53;;;17.30;59.40;18.40;101902.00;;;;5041016;28;20187;-48
2024/01/25 00:47:10;;;;;;;8.87;4.40;;;17.30;59.20;18.30;101913.00;;;;5044743;28;20206;-49
2024/01/25 00:49:36;;;;;;;9.00;4.70;;;17.30;59.30;18.30;101927.00;;;;5041829;28;20182;-49
2024/01/25 00:52:03;;;;;;;9.33;4.70;;;17.30;59.30;18.30;101922.00;;;;5044471;28;20179;-48
2024/01/25 00:54:29;;;;;;;9.60;4.50;;;17.30;59.50;18.30;101905.00;;;;5041441;28;20173;-48
2024/01/25 00:56:55;;;;;;;9.63;4.60;;;17.30;59.40;18.30;101908.00;;;;5043849;28;20207;-50
2024/01/25 00:59:21;;;;;;;6.87;3.90;;;17.20;60.00;18.30;101929.00;;;;5043715;28;20186;-50
2024/01/25 01:01:48;;;;;;;10.17;4.70;;;17.20;59.30;18.30;101933.00;;;;5041967;28;20261;-49
2024/01/25 01:04:15;;;;;;;9.43;4.83;;;17.30;59.40;18.30;101931.00;;;;5043634;28;20209;-50
2024/01/25 01:06:41;;;;;;;7.27;4.27;;;17.20;59.30;18.30;101931.00;;;;5040415;28;20218;-49
2024/01/25 01:09:07;;;;;;;8.60;4.20;;;17.30;59.40;18.30;101935.00;;;;5045241;28;20241;-49
2024/01/25 01:11:33;;;;;;;8.57;4.30;;;17.20;59.40;18.20;101937.00;;;;5041955;28;20178;-49
2024/01/25 01:13:59;;;;;;;9.40;4.60;;;17.20;59.40;18.20;101940.00;;;;5043985;28;20341;-49
2024/01/25 01:16:25;;;;;;;8.63;4.37;;;17.20;59.50;18.20;101937.00;;;;5041805;28;20201;-49
2024/01/25 01:18:50;;;;;;;9.33;4.50;;;17.20;59.50;18.20;101926.00;;;;5041097;28;20233;-50
2024/01/25 01:21:16;;;;;;;8.27;4.67;;;17.20;59.40;18.20;101927.00;;;;5042924;28;20191;-49
2024/01/25 01:23:42;;;;;;;8.60;4.60;;;17.20;59.40;18.20;101931.00;;;;5040808;28;20503;-49
2024/01/25 01:26:07;;;;;;;9.27;4.57;;;17.20;59.50;18.20;101935.00;;;;5037039;28;20613;-50
2024/01/25 01:28:33;;;;;;;8.20;4.67;;;17.20;59.60;18.20;101939.00;;;;5039740;28;20178;-49
2024/01/25 01:30:59;;;;;;;10.10;4.83;;;17.20;59.60;18.20;101937.00;;;;5047700;28;20193;-49
2024/01/25 01:33:24;;;;;;;8.27;4.60;;;17.20;59.60;18.20;101929.00;;;;5047588;28;20554;-50
2024/01/25 01:35:50;;;;;;;9.37;4.43;;;17.20;59.60;18.10;101930.00;;;;5041121;28;20681;-49
2024/01/25 01:38:16;;;;;;;9.17;5.00;;;17.20;59.60;18.10;101929.00;;;;5043323;28;20186;-51
2024/01/25 01:40:42;;;;;;;9.37;4.93;;;17.10;59.60;18.10;101926.00;;;;5040846;28;20230;-48
2024/01/25 01:43:07;;;;;;;11.03;4.67;;;17.10;59.60;18.10;101942.00;;;;5042716;28;20782;-50
2024/01/25 01:45:33;;;;;;;9.27;4.70;;;17.10;59.60;18.10;101949.00;;;;5045283;28;20193;-49
2024/01/25 01:47:59;;;;;;;9.53;4.77;;;17.10;59.60;18.10;101940.00;;;;5043743;28;20236;-50
2024/01/25 01:50:24;;;;;;;9.93;4.70;;;17.10;59.60;18.10;101946.00;;;;5040060;28;20236;-49
2024/01/25 01:52:50;;;;;;;8.93;4.50;;;17.10;59.50;18.10;101949.00;;;;5041232;28;20186;-49
2024/01/25 01:55:17;;;;;;;10.40;5.00;;;17.00;59.50;18.10;101946.00;;;;5042190;28;20557;-49
2024/01/25 01:57:44;;;;;;;8.70;4.53;;;17.10;59.40;18.10;101943.00;;;;5040273;28;20399;-50
2024/01/25 02:00:10;;;;;;;10.00;4.77;;;17.10;59.50;18.10;101952.00;;;;5043800;28;20758;-51
2024/01/25 02:02:36;;;;;;;8.93;4.80;;;17.10;59.30;18.10;101960.00;;;;5044901;28;20177;-48
2024/01/25 02:05:02;;;;;;;8.23;4.30;;;17.10;59.30;18.10;101955.00;;;;5042773;28;20900;-50
2024/01/25 02:07:28;;;;;;;10.03;4.53;;;17.00;59.20;18.00;101949.00;;;;5039398;28;20691;-49
2024/01/25 02:09:53;;;;;;;8.90;4.33;;;17.00;59.20;18.00;101958.00;;;;5040383;28;20183;-48
2024/01/25 02:12:19;;;;;;;9.57;4.70;;;17.00;59.20;18.00;101913.00;;;;5041823;28;20259;-49
2024/01/25 02:14:45;;;;;;;9.00;4.80;;;17.00;59.10;18.00;101966.00;;;;5040526;28;20718;-49
2024/01/25 02:17:11;;;;;;;9.50;4.47;;;17.00;58.90;17.80;101968.00;;;;5042541;28;20211;-49
2024/01/25 02:19:37;;;;;;;9.53;5.23;;;17.00;58.90;18.00;101970.00;;;;5039708;28;20187;-49
2024/01/25 02:22:07;;;;;;;9.90;4.40;;;17.00;58.90;18.00;101980.00;;;;5042789;28;20189;-49
2024/01/25 02:24:32;;;;;;;9.47;4.63;;;17.00;58.90;18.00;101984.00;;;;5038558;28;20652;-48
2024/01/25 02:26:58;;;;;;;9.77;4.87;;;17.00;58.90;18.00;102004.00;;;;5039150;28;20214;-49
2024/01/25 02:29:24;;;;;;;8.63;4.70;;;17.00;58.90;18.00;101997.00;;;;5040925;28;20228;-50
2024/01/25 02:31:50;;;;;;;9.00;4.60;;;17.00;58.90;18.00;102002.00;;;;5040862;28;20189;-50
2024/01/25 02:34:15;;;;;;;10.80;4.83;;;17.00;58.90;18.00;102002.00;;;;5041965;28;20200;-50
2024/01/25 02:36:41;;;;;;;9.60;4.80;;;17.00;58.90;18.00;102000.00;;;;5039328;28;20247;-50
2024/01/25 02:39:07;;;;;;;8.00;4.53;;;17.00;59.50;18.00;101994.00;;;;5042345;28;20279;-49
2024/01/25 02:41:33;;;;;;;9.80;5.00;;;17.00;58.80;18.00;102001.00;;;;5039650;28;20277;-50
2024/01/25 02:44:00;;;;;;;10.07;5.10;;;17.00;58.80;18.00;102008.00;;;;5040498;28;20262;-50
2024/01/25 02:46:25;;;;;;;10.97;5.20;;;16.90;58.80;17.90;102001.00;;;;5040246;28;20213;-48
2024/01/25 02:48:51;;;;;;;7.80;4.23;;;16.90;58.80;17.90;102009.00;;;;5040978;28;20228;-49
2024/01/25 02:51:17;;;;;;;9.27;4.77;;;16.90;58.80;17.90;102009.00;;;;5041958;28;20643;-50
2024/01/25 02:53:42;;;;;;;8.50;4.60;;;16.90;58.80;17.90;102006.00;;;;5041065;28;20182;-49
2024/01/25 02:56:08;;;;;;;10.33;5.00;;;16.90;58.80;17.90;102008.00;;;;5045101;28;20198;-49
2024/01/25 02:58:34;;;;;;;8.57;4.40;;;16.90;58.90;17.90;101997.00;;;;5041657;28;20186;-49
2024/01/25 03:01:00;;;;;;;8.10;4.70;;;16.80;58.80;17.70;102005.00;;;;5046210;28;20192;-49
2024/01/25 03:03:25;;;;;;;9.77;4.73;;;16.90;58.90;17.90;101999.00;;;;5044597;28;20197;-49
2024/01/25 03:05:51;;;;;;;8.20;4.67;;;16.90;58.90;17.90;101988.00;;;;5044481;28;20225;-49
2024/01/25 03:08:17;;;;;;;8.33;4.37;;;16.90;58.90;17.90;101990.00;;;;5045616;28;20220;-49
2024/01/25 03:10:43;;;;;;;9.27;4.33;;;16.80;58.80;17.90;101991.00;;;;5043008;28;20183;-49
2024/01/25 03:13:09;;;;;;;8.93;4.73;;;16.80;58.80;17.80;101992.00;;;;5044982;28;20243;-50
2024/01/25 03:15:34;;;;;;;11.10;5.07;;;16.80;58.80;17.80;101979.00;;;;5043006;28;20178;-49
2024/01/25 03:18:00;;;;;;;9.17;4.90;;;16.80;59.50;17.80;101981.00;;;;5035312;28;20186;-50
2024/01/25 03:20:26;;;;;;;10.33;4.90;;;16.80;58.80;17.80;101902.00;;;;5044486;28;20188;-48
2024/01/25 03:22:52;;;;;;;9.70;4.80;;;16.80;58.90;17.80;101986.00;;;;5045224;28;20525;-49
2024/01/25 03:25:17;;;;;;;9.30;4.67;;;16.80;58.90;17.80;101987.00;;;;5049019;28;20217;-50
2024/01/25 03:27:43;;;;;;;9.57;4.47;;;16.80;59.00;17.80;101986.00;;;;5044342;28;20241;-48
2024/01/25 03:30:10;;;;;;;9.67;4.80;;;16.80;58.90;17.80;101994.00;;;;5042251;28;20552;-48
2024/01/25 03:32:35;;;;;;;10.17;5.00;;;16.80;59.60;17.80;101988.00;;;;5044113;28;20201;-49
2024/01/25 03:35:01;;;;;;;8.67;4.23;;;16.80;59.70;17.80;101992.00;;;;5047435;28;20181;-49
2024/01/25 03:37:27;;;;;;;9.07;4.77;;;16.80;59.70;17.80;101994.00;;;;5050566;28;20216;-49
2024/01/25 03:39:53;;;;;;;8.90;4.60;;;16.70;59.80;17.80;102000.00;;;;5044545;28;20285;-49
2024/01/25 03:42:18;;;;;;;9.77;4.40;;;16.80;59.80;17.80;102007.00;;;;5045242;28;20567;-49
2024/01/25 03:44:45;;;;;;;8.67;4.70;;;16.70;59.70;17.70;102006.00;;;;5043334;28;20748;-49
2024/01/25 03:47:11;;;;;;;9.27;4.80;;;16.70;59.70;17.70;102016.00;;;;5044043;28;20656;-49
2024/01/25 03:49:37;;;;;;;9.00;4.40;;;16.80;59.80;17.70;102010.00;;;;5042540;28;20171;-49
2024/01/25 03:52:04;;;;;;;9.67;5.10;;;16.80;59.80;17.70;102009.00;;;;5045426;28;20577;-49
2024/01/25 03:54:30;;;;;;;9.17;4.60;;;16.70;59.70;17.70;102015.00;;;;5042749;28;20180;-50
2024/01/25 03:56:56;;;;;;;10.27;4.63;;;16.70;59.70;17.70;102009.00;;;;5044467;28;20207;-50
2024/01/25 03:59:22;;;;;;;10.40;5.37;;;16.70;60.40;17.70;102014.00;;;;5044402;28;20181;-49
2024/01/25 04:01:48;;;;;;;9.83;4.87;;;16.70;59.60;17.70;102014.00;;;;5044639;28;20679;-50
2024/01/25 04:04:15;;;;;;;9.03;4.93;;;16.70;60.30;17.70;102012.00;;;;5045201;28;20181;-50
2024/01/25 04:06:42;;;;;;;8.23;4.43;;;16.60;59.60;17.70;102024.00;;;;5043324;28;20206;-49
2024/01/25 04:09:08;;;;;;;10.83;5.27;;;16.70;59.70;17.60;102032.00;;;;5044767;28;20213;-49
2024/01/25 04:11:34;;;;;;;9.27;4.83;;;16.60;59.70;17.60;102030.00;;;;5046117;28;20193;-50
2024/01/25 04:14:00;;;;;;;9.80;4.77;;;16.60;59.80;17.60;102020.00;;;;5038550;28;20179;-50
2024/01/25 04:16:26;;;;;;;11.57;4.93;;;16.60;59.90;17.60;102018.00;;;;5044364;28;20257;-50
2024/01/25 04:18:52;;;;;;;9.63;4.57;;;16.60;59.80;17.60;102021.00;;;;5044829;28;20184;-48
2024/01/25 04:21:18;;;;;;;9.13;4.83;;;16.70;59.80;17.60;102027.00;;;;5045553;28;20261;-50
2024/01/25 04:23:43;;;;;;;8.73;4.67;;;16.60;59.70;17.60;102034.00;;;;5043410;28;20757;-49
2024/01/25 04:26:09;;;;;;;12.53;5.23;;;16.60;59.70;17.60;102040.00;;;;5044517;28;20209;-49
2024/01/25 04:28:35;;;;;;;11.03;5.03;;;16.60;60.40;17.60;102039.00;;;;5042380;28;20185;-49
2024/01/25 04:31:03;;;;;;;8.43;4.40;;;16.60;60.00;17.60;102028.00;;;;5034850;28;20179;-49
2024/01/25 04:33:29;;;;;;;11.13;5.20;;;16.60;59.80;17.60;102028.00;;;;5043886;28;20560;-48
2024/01/25 04:35:55;;;;;;;9.60;4.77;;;16.60;59.90;17.60;102037.00;;;;5043402;28;20196;-49
2024/01/25 04:38:21;;;;;;;10.27;4.93;;;16.60;59.80;17.60;102040.00;;;;5044822;28;20202;-49
2024/01/25 04:40:47;;;;;;;12.40;4.73;;;16.60;59.70;17.60;102032.00;;;;5042524;28;20190;-49
2024/01/25 04:43:13;;;;;;;12.73;4.87;;;16.60;59.60;17.60;102033.00;;;;5045455;28;20228;-49
2024/01/25 04:45:39;;;;;;;8.53;4.73;;;16.60;59.60;17.50;102039.00;;;;5040990;28;20327;-48
2024/01/25 04:48:06;;;;;;;10.97;4.70;;;16.50;59.50;17.50;102036.00;;;;5045293;28;20823;-49
2024/01/25 04:50:32;;;;;;;9.33;4.53;;;16.50;59.40;17.50;102041.00;;;;5042869;28;20193;-49
2024/01/25 04:52:57;;;;;;;9.33;4.37;;;16.50;59.30;17.50;102035.00;;;;5043517;28;20571;-48
2024/01/25 04:55:23;;;;;;;9.93;4.40;;;16.50;59.90;17.50;102049.00;;;;5043843;28;20188;-50
2024/01/25 04:57:53;;;;;;;9.87;4.77;;;16.50;59.20;17.50;102036.00;;;;5043617;28;20207;-50
2024/01/25 05:00:21;;;;;;;8.07;4.30;;;16.50;59.20;17.50;102049.00;;;;5044479;28;20646;-49
2024/01/25 05:02:47;;;;;;;10.13;4.77;;;16.40;59.10;17.50;102041.00;;;;5043936;28;20183;-48
2024/01/25 05:05:13;;;;;;;8.80;4.63;;;16.40;59.00;17.50;102037.00;;;;5043857;28;20206;-49
2024/01/25 05:07:39;;;;;;;9.67;4.83;;;16.40;59.00;17.50;102042.00;;;;5042331;28;20705;-49
2024/01/25 05:10:05;;;;;;;9.73;4.77;;;16.40;59.00;17.40;102038.00;;;;5045624;28;20602;-49
2024/01/25 05:12:31;;;;;;;9.07;4.50;;;16.40;59.10;17.40;102044.00;;;;5043604;28;20177;-48
2024/01/25 05:14:58;;;;;;;9.93;4.70;;;16.40;59.20;17.40;102043.00;;;;5052843;28;20189;-49
2024/01/25 05:17:23;;;;;;;10.93;4.57;;;16.40;59.30;17.40;102037.00;;;;5045210;28;20286;-49
2024/01/25 05:19:49;;;;;;;10.43;5.13;;;16.40;59.40;17.40;102029.00;;;;5037085;28;20186;-49
2024/01/25 05:22:15;;;;;;;10.50;4.77;;;16.40;59.50;17.40;102030.00;;;;5034029;28;20195;-49
2024/01/25 05:24:40;;;;;;;9.97;4.73;;;16.40;59.50;17.40;102023.00;;;;5036792;28;20766;-49
2024/01/25 05:27:06;;;;;;;12.10;5.00;;;16.40;59.60;17.40;102026.00;;;;5047480;28;20685;-49
2024/01/25 05:29:32;;;;;;;10.00;4.87;;;16.40;59.60;17.40;102025.00;;;;5046916;28;20189;-49
2024/01/25 05:31:58;;;;;;;10.00;5.20;;;16.30;59.50;17.30;102030.00;;;;5042650;28;20237;-49
2024/01/25 05:34:24;;;;;;;11.60;4.90;;;16.30;59.50;17.30;102024.00;;;;5041626;28;20179;-49
2024/01/25 05:36:50;;;;;;;16.60;5.90;;;16.30;59.40;17.30;102032.00;;;;5042130;28;20273;-49
2024/01/25 05:39:17;;;;;;;15.40;5.43;;;16.30;59.50;17.30;102029.00;;;;5044345;28;20709;-49
2024/01/25 05:41:44;;;;;;;14.93;5.20;;;16.30;59.60;17.30;102024.00;;;;5041376;28;20283;-49
2024/01/25 05:44:12;;;;;;;14.67;5.00;;;16.30;59.60;17.30;102019.00;;;;5043449;28;20180;-48
2024/01/25 05:46:37;;;;;;;16.90;5.53;;;16.30;59.60;17.30;102016.00;;;;5040061;28;20664;-49
2024/01/25 05:49:03;;;;;;;17.60;5.10;;;16.30;59.60;17.30;102020.00;;;;5042973;28;20183;-49
2024/01/25 05:51:29;;;;;;;16.63;5.47;;;16.30;59.60;17.30;102015.00;;;;5041588;28;20182;-49
2024/01/25 05:53:56;;;;;;;15.33;4.80;;;16.30;59.70;17.30;102018.00;;;;5038615;28;20186;-48
2024/01/25 05:56:21;;;;;;;14.23;5.10;;;16.20;59.70;17.30;102028.00;;;;5050877;28;20202;-49
2024/01/25 05:58:47;;;;;;;16.77;5.17;;;16.30;59.80;17.30;102037.00;;;;5044154;28;20175;-48
2024/01/25 06:01:13;;;;;;;13.00;4.83;;;16.30;59.90;17.30;102054.00;;;;5042196;28;20868;-48
2024/01/25 06:03:38;;;;;;;11.77;4.60;;;16.30;59.80;17.20;102039.00;;;;5041488;28;20171;-48
2024/01/25 06:06:07;;;;;;;14.40;5.23;;;16.20;59.80;17.20;102044.00;;;;5043796;28;20199;-47
2024/01/25 06:08:33;;;;;;;14.13;5.30;;;16.20;59.80;17.20;102047.00;;;;5041863;28;20189;-48
2024/01/25 06:10:59;;;;;;;14.10;5.37;;;16.20;59.70;17.20;102051.00;;;;5043472;28;20182;-48
2024/01/25 06:13:24;;;;;;;13.10;5.87;;;16.20;59.70;17.20;102052.00;;;;5041706;28;20209;-48
2024/01/25 06:15:50;;;;;;;14.00;5.87;;;16.20;59.60;17.20;102058.00;;;;5042310;28;20820;-49
2024/01/25 06:18:16;;;;;;;13.93;7.33;;;16.10;59.40;16.90;102053.00;;;;5042829;28;20174;-48
2024/01/25 06:20:42;;;;;;;14.80;8.03;;;16.20;59.60;17.10;102055.00;;;;5041052;28;20250;-48
2024/01/25 06:23:07;;;;;;;15.40;8.73;;;16.10;59.40;17.10;102046.00;;;;5043922;28;20179;-48
2024/01/25 06:25:35;;;;;;;17.03;9.33;;;16.20;59.40;17.10;102056.00;;;;5038409;28;20228;-49
2024/01/25 06:28:00;;;;;;;15.07;9.33;;;16.10;59.40;17.10;102066.00;;;;5036610;28;20206;-49
2024/01/25 06:30:26;;;;;;;16.60;9.67;;;16.10;59.30;17.10;102062.00;;;;5042373;28;20528;-48
2024/01/25 06:32:52;;;;;;;19.23;9.83;;;16.10;59.30;17.10;102059.00;;;;5042411;28;20533;-48
2024/01/25 06:35:17;;;;;;;15.83;9.60;;;16.10;59.20;17.10;102068.00;;;;5043225;28;20175;-49
2024/01/25 06:37:43;;;;;;;14.70;9.00;;;16.00;59.10;17.10;102073.00;;;;5041470;28;20210;-49
2024/01/25 06:40:09;;;;;;;14.47;8.80;;;16.00;59.10;17.00;102080.00;;;;5043521;28;20645;-49
2024/01/25 06:42:35;;;;;;;15.27;9.07;;;16.00;59.00;17.00;102082.00;;;;5040655;28;20203;-49
2024/01/25 06:45:01;;;;;;;14.83;8.80;;;16.00;59.00;17.00;102088.00;;;;5032192;28;20178;-49
2024/01/25 06:47:26;;;;;;;16.83;8.57;;;16.00;59.00;17.00;102088.00;;;;5040528;28;20624;-49
2024/01/25 06:49:52;;;;;;;14.47;8.23;;;16.00;59.00;17.00;102091.00;;;;5042212;28;20229;-48
2024/01/25 06:52:18;;;;;;;14.40;8.37;;;16.00;58.90;17.00;102087.00;;;;5043255;28;20171;-49
2024/01/25 06:54:44;;;;;;;16.43;8.60;;;15.90;58.80;17.00;102086.00;;;;5041059;28;20255;-49
2024/01/25 06:57:10;;;;;;;11.43;7.43;;;15.90;58.80;16.90;102105.00;;;;5043636;28;20211;-48
2024/01/25 06:59:36;;;;;;;16.63;8.83;;;15.90;58.80;16.90;102106.00;;;;5040840;28;20856;-49
2024/01/25 07:02:04;;;;;;;15.53;8.50;;;15.90;58.70;16.90;102117.00;;;;5042329;28;20186;-48
2024/01/25 07:04:30;;;;;;;14.77;7.83;;;15.90;58.70;16.90;102125.00;;;;5039341;28;20190;-49
2024/01/25 07:06:55;;;;;;;13.03;7.60;;;15.90;58.70;16.90;102118.00;;;;5048748;28;20206;-49
2024/01/25 07:09:21;;;;;;;13.93;8.17;;;15.80;58.60;16.90;102122.00;;;;5042136;28;20174;-49
2024/01/25 07:11:47;;;;;;;12.90;7.63;;;15.90;58.70;16.90;102110.00;;;;5039429;28;20558;-49
2024/01/25 07:14:13;;;;;;;12.47;6.97;;;15.80;58.60;16.90;102109.00;;;;5043518;28;20186;-56
2024/01/25 07:16:38;;;;;;;12.93;7.17;;;15.80;58.60;16.80;102097.00;;;;5036544;28;20215;-48
2024/01/25 07:19:04;;;;;;;14.57;7.63;;;15.80;58.50;16.80;102113.00;;;;5049979;28;20179;-51
2024/01/25 07:21:33;;;;;;;13.33;7.33;;;15.80;58.50;16.80;102120.00;;;;5042684;28;20170;-49
2024/01/25 07:24:01;;;;;;;13.73;7.50;;;15.80;58.50;16.80;102118.00;;;;5043443;28;20308;-49
2024/01/25 07:26:27;;;;;;;13.13;7.40;;;15.80;58.50;16.80;102131.00;;;;5035771;28;20206;-49
2024/01/25 07:28:57;;;;;;;11.40;7.10;;;15.80;58.50;16.80;102122.00;;;;5042221;28;20266;-49
2024/01/25 07:31:26;;;;;;;14.57;7.57;;;15.80;58.50;16.70;102138.00;;;;5042161;28;20303;-48
2024/01/25 07:33:53;;;;;;;12.47;6.97;;;15.80;58.50;16.70;102131.00;;;;5041772;28;20229;-48
2024/01/25 07:36:18;;;;;;;12.90;6.97;;;15.70;58.30;16.70;102143.00;;;;5042630;28;20209;-48
2024/01/25 07:38:46;;;;;;;11.87;6.63;;;15.70;58.30;16.70;102127.00;;;;5041116;28;20179;-48
2024/01/25 07:41:13;;;;;;;11.10;6.40;;;15.70;58.30;16.70;102129.00;;;;5042662;28;20201;-51
2024/01/25 07:43:39;;;;;;;10.97;6.30;;;15.70;58.30;16.70;102132.00;;;;5040771;28;20666;-48
2024/01/25 07:46:04;;;;;;;10.50;6.80;;;15.70;58.20;16.70;102125.00;;;;5046456;28;20194;-47
2024/01/25 07:48:30;;;;;;;10.97;6.40;;;15.70;58.20;16.70;102119.00;;;;5043170;28;20718;-51
2024/01/25 07:50:56;;;;;;;10.70;6.10;;;15.60;58.10;16.70;102127.00;;;;5045602;28;20225;-48
2024/01/25 07:53:22;;;;;;;10.63;6.43;;;15.60;58.10;16.60;102128.00;;;;5028164;28;20202;-48
2024/01/25 07:55:48;;;;;;;9.67;6.10;;;15.60;58.10;16.60;102130.00;;;;5044579;28;20171;-48
2024/01/25 07:58:15;;;;;;;11.90;6.40;;;15.60;58.10;16.60;102135.00;;;;5046641;28;20178;-48
2024/01/25 08:00:41;;;;;;;8.93;5.80;;;15.60;58.10;16.60;102146.00;;;;5043690;28;20262;-49
2024/01/25 08:03:06;;;;;;;12.03;6.30;;;15.60;58.10;16.60;102152.00;;;;5046710;28;20174;-49
2024/01/25 08:05:32;;;;;;;8.87;5.93;;;15.60;58.10;16.60;102145.00;;;;5044091;28;20190;-49
2024/01/25 08:07:58;;;;;;;11.60;6.13;;;15.60;58.10;16.60;102148.00;;;;5046003;28;20198;-49
2024/01/25 08:10:23;;;;;;;10.27;6.00;;;15.50;58.00;16.50;102160.00;;;;5045151;28;20178;-49
2024/01/25 08:12:49;;;;;;;9.97;5.87;;;15.50;58.00;16.50;102147.00;;;;5044589;28;20182;-49
2024/01/25 08:15:15;;;;;;;11.93;6.17;;;15.50;58.00;16.50;102159.00;;;;5046076;28;20178;-49
2024/01/25 08:17:41;;;;;;;9.93;5.80;;;15.50;58.00;16.50;102157.00;;;;5045367;28;20201;-49
2024/01/25 08:20:08;;;;;;;10.07;5.70;;;15.50;58.00;16.50;102158.00;;;;5052611;28;20558;-48
2024/01/25 08:22:34;;;;;;;9.57;5.37;;;15.50;58.00;16.50;102152.00;;;;5047941;28;20216;-50
2024/01/25 08:25:00;;;;;;;9.57;5.80;;;15.50;58.00;16.50;102147.00;;;;5046272;28;20661;-49
2024/01/25 08:27:25;;;;;;;9.50;5.87;;;15.40;57.90;16.50;102146.00;;;;5042872;28;20212;-51
2024/01/25 08:29:51;;;;;;;10.73;5.80;;;15.40;57.90;16.40;102154.00;;;;5045096;28;20175;-49
2024/01/25 08:32:17;;;;;;;9.93;5.60;;;15.40;57.90;16.40;102062.00;;;;5040656;28;20180;-48
2024/01/25 08:34:43;;;;;;;8.80;5.43;;;15.40;57.90;16.40;102144.00;;;;5041169;28;20179;-48
2024/01/25 08:37:08;;;;;;;9.70;5.80;;;15.40;57.90;16.40;102126.00;;;;5045928;28;20586;-49
2024/01/25 08:39:34;;;;;;;9.93;5.70;;;15.40;57.90;16.40;102126.00;;;;5044440;28;20182;-49
2024/01/25 08:42:03;;;;;;;7.97;5.13;;;15.40;57.90;16.40;102121.00;;;;5033789;28;20212;-49
2024/01/25 08:44:29;;;;;;;9.33;5.50;;;15.40;57.90;16.40;102118.00;;;;5030915;28;20178;-49
2024/01/25 08:46:54;;;;;;;10.97;5.77;;;15.40;58.20;16.40;102131.00;;;;5033129;28;20199;-47
2024/01/25 08:49:20;;;;;;;9.30;5.50;;;15.40;58.20;16.30;102133.00;;;;5043255;28;20186;-49
2024/01/25 08:51:46;;;;;;;9.80;5.40;;;15.30;58.40;16.30;102133.00;;;;5038695;28;20186;-48
2024/01/25 08:54:11;;;;;;;11.73;5.80;;;15.30;58.60;16.30;102150.00;;;;5044031;28;20201;-48
2024/01/25 08:56:37;;;;;;;9.60;5.53;;;15.30;58.90;16.30;102145.00;;;;5048643;28;20194;-48
2024/01/25 08:59:03;;;;;;;8.10;5.10;;;15.30;58.80;16.30;102140.00;;;;5038977;28;20182;-48
2024/01/25 09:01:29;;;;;;;11.43;5.37;;;15.40;58.80;16.30;102135.00;;;;5043119;28;20535;-48
2024/01/25 09:03:55;;;;;;;8.43;4.90;;;15.50;58.80;16.30;102130.00;;;;5040114;28;20183;-49
2024/01/25 09:06:21;;;;;;;10.53;5.57;;;15.50;59.10;16.30;102122.00;;;;5043307;28;20676;-48
2024/01/25 09:08:47;;;;;;;9.10;5.20;;;15.50;59.70;16.30;102120.00;;;;5047857;28;20180;-49
2024/01/25 09:11:13;;;;;;;10.27;5.50;;;15.60;60.30;16.40;102116.00;;;;5048357;28;20170;-49
2024/01/25 09:13:44;;;;;;;13.63;5.43;;;15.70;60.50;16.40;102125.00;;;;5039136;28;20710;-50
2024/01/25 09:16:09;;;;;;;11.13;5.10;;;15.70;60.90;16.40;102128.00;;;;5041142;28;20202;-49
2024/01/25 09:18:35;;;;;;;11.10;5.07;;;15.80;61.10;16.50;102121.00;;;;5041269;28;20186;-48
2024/01/25 09:21:01;;;;;;;12.37;5.37;;;15.90;61.20;16.50;102131.00;;;;5044164;28;20179;-49
2024/01/25 09:23:27;;;;;;;14.30;5.13;;;16.00;61.10;16.60;102138.00;;;;5043032;28;20191;-50
2024/01/25 09:25:52;;;;;;;8.73;4.80;;;16.10;61.10;16.60;102142.00;;;;5040104;28;20615;-50
2024/01/25 09:28:18;;;;;;;10.50;4.90;;;16.20;61.10;16.70;102144.00;;;;5041223;28;20206;-48
2024/01/25 09:30:44;;;;;;;8.07;4.67;;;16.30;60.90;16.80;102150.00;;;;5037042;28;20175;-48
2024/01/25 09:33:09;;;;;;;8.93;4.43;;;16.50;60.60;16.90;102157.00;;;;5040499;28;20529;-50
2024/01/25 09:35:35;;;;;;;10.23;4.97;;;16.60;60.60;17.00;102158.00;;;;5040813;28;20216;-49
2024/01/25 09:38:01;;;;;;;7.53;4.83;;;16.80;60.50;17.10;102161.00;;;;5032722;28;20184;-48
2024/01/25 09:40:27;;;;;;;9.03;4.83;;;16.90;60.30;17.20;102165.00;;;;5040190;28;20695;-49
2024/01/25 09:42:53;;;;;;;7.43;4.40;;;17.00;60.10;17.30;102165.00;;;;5042709;28;20207;-49
2024/01/25 09:45:18;;;;;;;6.87;4.43;;;17.10;60.10;17.10;102150.00;;;;5042827;28;20266;-49
2024/01/25 09:47:45;;;;;;;7.60;4.73;;;17.20;59.90;17.50;102155.00;;;;5040608;28;20228;-49
2024/01/25 09:50:11;;;;;;;8.03;4.63;;;17.30;59.80;17.60;102156.00;;;;5043869;28;20181;-49
2024/01/25 09:52:37;;;;;;;6.57;4.27;;;17.40;59.80;17.70;102158.00;;;;5040323;28;20206;-49
2024/01/25 09:55:06;;;;;;;9.57;4.43;;;17.50;59.60;17.70;102164.00;;;;5042576;28;20201;-50
2024/01/25 09:57:32;;;;;;;6.27;4.20;;;17.60;59.60;17.80;102171.00;;;;5024722;28;20283;-50
2024/01/25 09:59:58;;;;;;;7.63;4.33;;;17.60;59.70;17.90;102140.00;;;;5042950;28;20201;-50
2024/01/25 10:02:24;;;;;;;5.90;4.10;;;17.60;59.70;17.90;102155.00;;;;5043835;28;20185;-49
2024/01/25 10:04:51;;;;;;;6.10;4.23;;;17.60;59.70;17.90;102152.00;;;;5042493;28;20631;-48
2024/01/25 10:07:41;;;;;;;6.27;4.10;;;17.70;59.70;18.00;102169.00;;;;5043437;28;20208;-49
2024/01/25 10:10:07;;;;;;;5.77;4.13;;;17.70;59.70;18.10;102170.00;;;;5036414;28;20728;-49
2024/01/25 10:12:33;;;;;;;5.93;4.07;;;17.80;59.60;18.10;102189.00;;;;5040368;28;20716;-49
2024/01/25 10:14:59;;;;;;;5.93;3.67;;;17.90;59.60;18.20;102181.00;;;;5043820;28;20268;-50
2024/01/25 10:17:25;;;;;;;6.57;4.07;;;17.90;59.70;18.20;102192.00;;;;5043181;28;20668;-49
2024/01/25 10:19:51;;;;;;;5.77;4.10;;;17.90;59.70;18.20;102179.00;;;;5041817;28;20183;-49
2024/01/25 10:22:17;;;;;;;5.30;3.67;;;18.00;59.70;18.30;102177.00;;;;5042056;28;20243;-49
2024/01/25 10:24:42;;;;;;;6.17;4.27;;;17.90;59.60;18.30;102174.00;;;;5041095;28;20189;-49
2024/01/25 10:27:08;;;;;;;6.03;4.10;;;17.90;59.60;18.30;102177.00;;;;5041655;28;20304;-50
2024/01/25 10:29:37;;;;;;;5.77;3.80;;;18.00;59.60;18.40;102164.00;;;;5041622;28;20780;-50
2024/01/25 10:32:04;;;;;;;5.93;3.70;;;18.00;59.60;18.40;102162.00;;;;5031981;28;20185;-49
2024/01/25 10:34:30;;;;;;;8.37;4.10;;;18.00;59.60;18.40;102153.00;;;;5036867;28;20182;-49
2024/01/25 10:36:56;;;;;;;4.40;3.50;;;18.00;59.60;18.40;102151.00;;;;5043042;28;20221;-50
2024/01/25 10:39:22;;;;;;;6.00;4.20;;;18.10;59.70;18.40;102154.00;;;;5019256;28;20198;-48